sensor_id;sensor_type;location;lat;lon;timestamp;temperature;humidity
72712;SHT30;60828;40.292;17.998;2022-11-20T00:01:22;20.28;88.62
72712;SHT30;60828;40.292;17.998;2022-11-20T00:03:48;20.29;88.60
72712;SHT30;60828;40.292;17.998;2022-11-20T00:06:15;20.28;88.75
72712;SHT30;60828;40.292;17.998;2022-11-20T00:08:41;20.31;88.78
72712;SHT30;60828;40.292;17.998;2022-11-20T00:11:09;20.28;88.73
72712;SHT30;60828;40.292;17.998;2022-11-20T00:13:35;20.24;88.88
72712;SHT30;60828;40.292;17.998;2022-11-20T00:16:03;20.24;88.98
72712;SHT30;60828;40.292;17.998;2022-11-20T00:18:29;20.21;88.95
72712;SHT30;60828;40.292;17.998;2022-11-20T00:21:07;20.22;88.90
72712;SHT30;60828;40.292;17.998;2022-11-20T00:23:32;20.22;88.96
72712;SHT30;60828;40.292;17.998;2022-11-20T00:26:07;20.21;89.03
72712;SHT30;60828;40.292;17.998;2022-11-20T00:28:33;20.21;88.92
72712;SHT30;60828;40.292;17.998;2022-11-20T00:31:07;20.18;88.87
72712;SHT30;60828;40.292;17.998;2022-11-20T00:33:33;20.21;88.83
72712;SHT30;60828;40.292;17.998;2022-11-20T00:36:01;20.20;88.94
72712;SHT30;60828;40.292;17.998;2022-11-20T00:38:26;20.20;88.92
72712;SHT30;60828;40.292;17.998;2022-11-20T00:40:59;20.20;88.93
72712;SHT30;60828;40.292;17.998;2022-11-20T00:43:26;20.20;89.07
72712;SHT30;60828;40.292;17.998;2022-11-20T00:45:59;20.21;89.12
72712;SHT30;60828;40.292;17.998;2022-11-20T00:48:25;20.21;89.15
72712;SHT30;60828;40.292;17.998;2022-11-20T00:50:51;20.22;89.05
72712;SHT30;60828;40.292;17.998;2022-11-20T00:53:17;20.18;89.21
72712;SHT30;60828;40.292;17.998;2022-11-20T00:55:42;20.18;89.18
72712;SHT30;60828;40.292;17.998;2022-11-20T00:58:08;20.16;89.31
72712;SHT30;60828;40.292;17.998;2022-11-20T01:00:34;20.18;89.19
72712;SHT30;60828;40.292;17.998;2022-11-20T01:02:59;20.17;89.06
72712;SHT30;60828;40.292;17.998;2022-11-20T01:05:25;20.20;88.93
72712;SHT30;60828;40.292;17.998;2022-11-20T01:07:50;20.18;88.86
72712;SHT30;60828;40.292;17.998;2022-11-20T01:10:16;20.14;88.57
72712;SHT30;60828;40.292;17.998;2022-11-20T01:12:42;20.10;88.62
72712;SHT30;60828;40.292;17.998;2022-11-20T01:15:08;20.14;88.47
72712;SHT30;60828;40.292;17.998;2022-11-20T01:17:33;20.11;88.27
72712;SHT30;60828;40.292;17.998;2022-11-20T01:19:59;20.10;88.05
72712;SHT30;60828;40.292;17.998;2022-11-20T01:22:24;20.13;87.74
72712;SHT30;60828;40.292;17.998;2022-11-20T01:24:50;20.11;87.68
72712;SHT30;60828;40.292;17.998;2022-11-20T01:27:15;20.11;87.29
72712;SHT30;60828;40.292;17.998;2022-11-20T01:29:41;20.11;87.13
72712;SHT30;60828;40.292;17.998;2022-11-20T01:32:06;20.03;86.27
72712;SHT30;60828;40.292;17.998;2022-11-20T01:34:31;19.97;85.45
72712;SHT30;60828;40.292;17.998;2022-11-20T01:36:57;19.94;81.29
72712;SHT30;60828;40.292;17.998;2022-11-20T01:39:24;19.94;79.22
72712;SHT30;60828;40.292;17.998;2022-11-20T01:41:51;19.87;78.01
72712;SHT30;60828;40.292;17.998;2022-11-20T01:47:17;19.70;77.10
72712;SHT30;60828;40.292;17.998;2022-11-20T01:50:03;19.60;77.80
72712;SHT30;60828;40.292;17.998;2022-11-20T01:52:55;19.49;78.48
72712;SHT30;60828;40.292;17.998;2022-11-20T01:55:26;19.45;79.32
72712;SHT30;60828;40.292;17.998;2022-11-20T01:57:54;19.41;79.60
72712;SHT30;60828;40.292;17.998;2022-11-20T02:00:20;19.43;80.32
72712;SHT30;60828;40.292;17.998;2022-11-20T02:02:56;19.38;81.32
72712;SHT30;60828;40.292;17.998;2022-11-20T02:05:27;19.41;81.95
72712;SHT30;60828;40.292;17.998;2022-11-20T02:07:55;19.43;82.50
72712;SHT30;60828;40.292;17.998;2022-11-20T02:10:22;19.38;83.38
72712;SHT30;60828;40.292;17.998;2022-11-20T02:12:48;19.36;84.17
72712;SHT30;60828;40.292;17.998;2022-11-20T02:15:33;19.32;84.63
72712;SHT30;60828;40.292;17.998;2022-11-20T02:17:58;19.32;84.05
72712;SHT30;60828;40.292;17.998;2022-11-20T02:20:24;19.28;82.02
72712;SHT30;60828;40.292;17.998;2022-11-20T02:22:52;19.38;81.04
72712;SHT30;60828;40.292;17.998;2022-11-20T02:25:19;19.36;80.66
72712;SHT30;60828;40.292;17.998;2022-11-20T02:27:45;19.36;80.75
72712;SHT30;60828;40.292;17.998;2022-11-20T02:30:10;19.28;81.19
72712;SHT30;60828;40.292;17.998;2022-11-20T02:32:38;19.21;81.54
72712;SHT30;60828;40.292;17.998;2022-11-20T02:35:35;19.07;81.15
72712;SHT30;60828;40.292;17.998;2022-11-20T02:37:54;18.98;80.48
72712;SHT30;60828;40.292;17.998;2022-11-20T02:40:21;18.93;80.51
72712;SHT30;60828;40.292;17.998;2022-11-20T02:42:47;18.97;81.32
72712;SHT30;60828;40.292;17.998;2022-11-20T02:45:12;18.97;81.89
72712;SHT30;60828;40.292;17.998;2022-11-20T02:47:37;19.04;81.61
72712;SHT30;60828;40.292;17.998;2022-11-20T02:50:03;19.04;81.54
72712;SHT30;60828;40.292;17.998;2022-11-20T02:52:28;19.01;81.84
72712;SHT30;60828;40.292;17.998;2022-11-20T02:54:54;19.01;81.94
72712;SHT30;60828;40.292;17.998;2022-11-20T02:57:19;19.01;82.01
72712;SHT30;60828;40.292;17.998;2022-11-20T02:59:44;19.00;82.13
72712;SHT30;60828;40.292;17.998;2022-11-20T03:02:10;18.98;82.34
72712;SHT30;60828;40.292;17.998;2022-11-20T03:04:35;19.12;82.31
72712;SHT30;60828;40.292;17.998;2022-11-20T03:07:00;19.22;82.36
72712;SHT30;60828;40.292;17.998;2022-11-20T03:09:26;19.14;82.92
72712;SHT30;60828;40.292;17.998;2022-11-20T03:11:51;19.21;83.17
72712;SHT30;60828;40.292;17.998;2022-11-20T03:14:16;19.11;83.19
72712;SHT30;60828;40.292;17.998;2022-11-20T03:16:42;18.98;83.71
72712;SHT30;60828;40.292;17.998;2022-11-20T03:19:07;19.03;82.97
72712;SHT30;60828;40.292;17.998;2022-11-20T03:21:33;18.97;79.26
72712;SHT30;60828;40.292;17.998;2022-11-20T03:23:58;18.95;77.92
72712;SHT30;60828;40.292;17.998;2022-11-20T03:26:24;18.87;78.41
72712;SHT30;60828;40.292;17.998;2022-11-20T03:28:50;18.73;77.65
72712;SHT30;60828;40.292;17.998;2022-11-20T03:31:16;18.66;77.97
72712;SHT30;60828;40.292;17.998;2022-11-20T03:33:42;18.50;76.94
72712;SHT30;60828;40.292;17.998;2022-11-20T03:36:08;18.52;76.61
72712;SHT30;60828;40.292;17.998;2022-11-20T03:38:34;18.40;77.72
72712;SHT30;60828;40.292;17.998;2022-11-20T03:41:00;18.32;78.45
72712;SHT30;60828;40.292;17.998;2022-11-20T03:43:26;18.36;78.77
72712;SHT30;60828;40.292;17.998;2022-11-20T03:45:51;18.33;79.13
72712;SHT30;60828;40.292;17.998;2022-11-20T03:48:17;18.28;79.39
72712;SHT30;60828;40.292;17.998;2022-11-20T03:50:42;18.35;80.03
72712;SHT30;60828;40.292;17.998;2022-11-20T03:53:07;18.36;80.21
72712;SHT30;60828;40.292;17.998;2022-11-20T03:55:33;18.26;80.54
72712;SHT30;60828;40.292;17.998;2022-11-20T03:57:58;18.33;80.70
72712;SHT30;60828;40.292;17.998;2022-11-20T04:00:23;18.29;82.05
72712;SHT30;60828;40.292;17.998;2022-11-20T04:02:49;18.19;83.27
72712;SHT30;60828;40.292;17.998;2022-11-20T04:05:14;17.95;83.97
72712;SHT30;60828;40.292;17.998;2022-11-20T04:07:39;17.82;84.40
72712;SHT30;60828;40.292;17.998;2022-11-20T04:10:05;17.74;84.63
72712;SHT30;60828;40.292;17.998;2022-11-20T04:12:33;17.81;84.82
72712;SHT30;60828;40.292;17.998;2022-11-20T04:14:59;17.85;84.95
72712;SHT30;60828;40.292;17.998;2022-11-20T04:17:24;18.09;85.36
72712;SHT30;60828;40.292;17.998;2022-11-20T04:19:49;18.11;86.11
72712;SHT30;60828;40.292;17.998;2022-11-20T04:22:15;18.25;86.16
72712;SHT30;60828;40.292;17.998;2022-11-20T04:24:40;18.43;86.34
72712;SHT30;60828;40.292;17.998;2022-11-20T04:27:06;18.39;86.22
72712;SHT30;60828;40.292;17.998;2022-11-20T04:29:31;18.55;86.38
72712;SHT30;60828;40.292;17.998;2022-11-20T04:31:56;18.50;86.22
72712;SHT30;60828;40.292;17.998;2022-11-20T04:34:22;18.43;86.06
72712;SHT30;60828;40.292;17.998;2022-11-20T04:36:47;18.46;86.21
72712;SHT30;60828;40.292;17.998;2022-11-20T04:39:13;18.42;86.13
72712;SHT30;60828;40.292;17.998;2022-11-20T04:41:40;18.29;86.29
72712;SHT30;60828;40.292;17.998;2022-11-20T04:44:05;18.39;86.02
72712;SHT30;60828;40.292;17.998;2022-11-20T04:46:32;18.33;86.07
72712;SHT30;60828;40.292;17.998;2022-11-20T04:48:58;18.25;86.21
72712;SHT30;60828;40.292;17.998;2022-11-20T04:51:23;18.21;86.12
72712;SHT30;60828;40.292;17.998;2022-11-20T04:53:49;18.36;85.94
72712;SHT30;60828;40.292;17.998;2022-11-20T04:56:14;18.32;85.71
72712;SHT30;60828;40.292;17.998;2022-11-20T04:58:40;18.21;85.75
72712;SHT30;60828;40.292;17.998;2022-11-20T05:01:12;18.24;85.77
72712;SHT30;60828;40.292;17.998;2022-11-20T05:03:38;18.39;85.54
72712;SHT30;60828;40.292;17.998;2022-11-20T05:06:04;18.26;85.24
72712;SHT30;60828;40.292;17.998;2022-11-20T05:08:30;18.21;85.05
72712;SHT30;60828;40.292;17.998;2022-11-20T05:11:06;18.30;84.76
72712;SHT30;60828;40.292;17.998;2022-11-20T05:13:32;18.33;84.50
72712;SHT30;60828;40.292;17.998;2022-11-20T05:16:01;18.39;84.16
72712;SHT30;60828;40.292;17.998;2022-11-20T05:18:26;18.36;83.77
72712;SHT30;60828;40.292;17.998;2022-11-20T05:20:55;18.40;83.17
72712;SHT30;60828;40.292;17.998;2022-11-20T05:23:21;18.50;82.90
72712;SHT30;60828;40.292;17.998;2022-11-20T05:25:46;18.49;82.29
72712;SHT30;60828;40.292;17.998;2022-11-20T05:28:12;18.52;82.57
72712;SHT30;60828;40.292;17.998;2022-11-20T05:30:37;18.55;82.24
72712;SHT30;60828;40.292;17.998;2022-11-20T05:33:02;18.55;82.17
72712;SHT30;60828;40.292;17.998;2022-11-20T05:35:28;18.56;82.30
72712;SHT30;60828;40.292;17.998;2022-11-20T05:37:53;18.56;82.42
72712;SHT30;60828;40.292;17.998;2022-11-20T05:40:18;18.57;82.55
72712;SHT30;60828;40.292;17.998;2022-11-20T05:42:44;18.53;82.64
72712;SHT30;60828;40.292;17.998;2022-11-20T05:45:09;18.57;82.75
72712;SHT30;60828;40.292;17.998;2022-11-20T05:47:34;18.63;82.29
72712;SHT30;60828;40.292;17.998;2022-11-20T05:50:00;18.74;81.75
72712;SHT30;60828;40.292;17.998;2022-11-20T05:52:29;18.66;82.17
72712;SHT30;60828;40.292;17.998;2022-11-20T05:54:55;18.68;81.09
72712;SHT30;60828;40.292;17.998;2022-11-20T05:57:20;18.66;81.07
72712;SHT30;60828;40.292;17.998;2022-11-20T05:59:45;18.83;81.15
72712;SHT30;60828;40.292;17.998;2022-11-20T06:02:11;18.64;81.44
72712;SHT30;60828;40.292;17.998;2022-11-20T06:04:36;18.76;80.99
72712;SHT30;60828;40.292;17.998;2022-11-20T06:07:01;18.81;81.24
72712;SHT30;60828;40.292;17.998;2022-11-20T06:09:27;18.88;80.78
72712;SHT30;60828;40.292;17.998;2022-11-20T06:11:52;18.77;81.29
72712;SHT30;60828;40.292;17.998;2022-11-20T06:14:17;18.80;81.23
72712;SHT30;60828;40.292;17.998;2022-11-20T06:16:43;18.77;81.76
72712;SHT30;60828;40.292;17.998;2022-11-20T06:19:08;18.78;81.47
72712;SHT30;60828;40.292;17.998;2022-11-20T06:21:33;18.83;81.00
72712;SHT30;60828;40.292;17.998;2022-11-20T06:23:59;18.83;80.63
72712;SHT30;60828;40.292;17.998;2022-11-20T06:26:25;18.81;80.58
72712;SHT30;60828;40.292;17.998;2022-11-20T06:28:50;18.93;80.02
72712;SHT30;60828;40.292;17.998;2022-11-20T06:31:17;18.83;80.15
72712;SHT30;60828;40.292;17.998;2022-11-20T06:33:43;18.91;79.98
72712;SHT30;60828;40.292;17.998;2022-11-20T06:36:09;18.88;80.32
72712;SHT30;60828;40.292;17.998;2022-11-20T06:38:35;18.91;80.22
72712;SHT30;60828;40.292;17.998;2022-11-20T06:41:00;18.91;80.25
72712;SHT30;60828;40.292;17.998;2022-11-20T06:43:25;19.04;80.23
72712;SHT30;60828;40.292;17.998;2022-11-20T06:45:54;19.05;80.49
72712;SHT30;60828;40.292;17.998;2022-11-20T06:48:20;19.25;80.28
72712;SHT30;60828;40.292;17.998;2022-11-20T06:50:45;19.26;80.31
72712;SHT30;60828;40.292;17.998;2022-11-20T06:53:11;19.29;80.35
72712;SHT30;60828;40.292;17.998;2022-11-20T06:55:36;19.39;80.61
72712;SHT30;60828;40.292;17.998;2022-11-20T06:58:01;19.33;80.73
72712;SHT30;60828;40.292;17.998;2022-11-20T07:00:27;19.33;80.57
72712;SHT30;60828;40.292;17.998;2022-11-20T07:02:52;19.46;81.02
72712;SHT30;60828;40.292;17.998;2022-11-20T07:05:17;19.58;81.05
72712;SHT30;60828;40.292;17.998;2022-11-20T07:07:43;19.52;81.35
72712;SHT30;60828;40.292;17.998;2022-11-20T07:10:08;19.48;81.43
72712;SHT30;60828;40.292;17.998;2022-11-20T07:12:34;19.59;81.60
72712;SHT30;60828;40.292;17.998;2022-11-20T07:14:59;19.62;81.50
72712;SHT30;60828;40.292;17.998;2022-11-20T07:17:24;19.77;81.51
72712;SHT30;60828;40.292;17.998;2022-11-20T07:19:50;19.71;81.43
72712;SHT30;60828;40.292;17.998;2022-11-20T07:22:15;19.69;81.71
72712;SHT30;60828;40.292;17.998;2022-11-20T07:24:41;19.79;81.27
72712;SHT30;60828;40.292;17.998;2022-11-20T07:27:06;19.80;81.28
72712;SHT30;60828;40.292;17.998;2022-11-20T07:29:31;19.87;81.24
72712;SHT30;60828;40.292;17.998;2022-11-20T07:31:57;19.91;81.46
72712;SHT30;60828;40.292;17.998;2022-11-20T07:34:22;19.91;81.60
72712;SHT30;60828;40.292;17.998;2022-11-20T07:36:48;19.89;81.45
72712;SHT30;60828;40.292;17.998;2022-11-20T07:39:13;19.90;81.47
72712;SHT30;60828;40.292;17.998;2022-11-20T07:41:45;20.06;81.41
72712;SHT30;60828;40.292;17.998;2022-11-20T07:44:10;20.04;81.39
72712;SHT30;60828;40.292;17.998;2022-11-20T07:46:35;20.07;81.52
72712;SHT30;60828;40.292;17.998;2022-11-20T07:49:01;20.06;81.80
72712;SHT30;60828;40.292;17.998;2022-11-20T07:51:26;20.07;81.95
72712;SHT30;60828;40.292;17.998;2022-11-20T07:53:52;20.04;82.09
72712;SHT30;60828;40.292;17.998;2022-11-20T07:56:18;20.08;82.05
72712;SHT30;60828;40.292;17.998;2022-11-20T07:58:43;20.10;81.89
72712;SHT30;60828;40.292;17.998;2022-11-20T08:01:08;20.27;81.00
72712;SHT30;60828;40.292;17.998;2022-11-20T08:03:34;20.20;80.46
72712;SHT30;60828;40.292;17.998;2022-11-20T08:06:00;20.16;79.99
72712;SHT30;60828;40.292;17.998;2022-11-20T08:08:26;20.07;80.11
72712;SHT30;60828;40.292;17.998;2022-11-20T08:10:51;20.11;79.27
72712;SHT30;60828;40.292;17.998;2022-11-20T08:13:17;20.10;79.43
72712;SHT30;60828;40.292;17.998;2022-11-20T08:16:01;20.14;79.37
72712;SHT30;60828;40.292;17.998;2022-11-20T08:18:26;20.14;79.68
72712;SHT30;60828;40.292;17.998;2022-11-20T08:20:51;20.36;79.30
72712;SHT30;60828;40.292;17.998;2022-11-20T08:23:17;20.72;78.66
72712;SHT30;60828;40.292;17.998;2022-11-20T08:25:42;21.92;76.24
72712;SHT30;60828;40.292;17.998;2022-11-20T08:28:08;23.42;71.70
72712;SHT30;60828;40.292;17.998;2022-11-20T08:30:34;24.11;67.73
72712;SHT30;60828;40.292;17.998;2022-11-20T08:33:00;24.53;66.24
72712;SHT30;60828;40.292;17.998;2022-11-20T08:35:26;26.17;62.84
72712;SHT30;60828;40.292;17.998;2022-11-20T08:37:51;28.06;56.49
72712;SHT30;60828;40.292;17.998;2022-11-20T08:40:17;28.65;54.69
72712;SHT30;60828;40.292;17.998;2022-11-20T08:42:46;27.24;56.40
72712;SHT30;60828;40.292;17.998;2022-11-20T08:45:11;26.84;59.72
72712;SHT30;60828;40.292;17.998;2022-11-20T08:47:37;26.93;59.16
72712;SHT30;60828;40.292;17.998;2022-11-20T08:50:02;28.47;53.99
72712;SHT30;60828;40.292;17.998;2022-11-20T08:52:27;28.92;52.13
72712;SHT30;60828;40.292;17.998;2022-11-20T08:54:53;28.98;53.08
72712;SHT30;60828;40.292;17.998;2022-11-20T08:57:18;29.60;51.77
72712;SHT30;60828;40.292;17.998;2022-11-20T08:59:43;30.98;46.59
72712;SHT30;60828;40.292;17.998;2022-11-20T09:02:09;31.14;45.51
72712;SHT30;60828;40.292;17.998;2022-11-20T09:04:34;31.32;46.01
72712;SHT30;60828;40.292;17.998;2022-11-20T09:07:00;32.66;43.36
72712;SHT30;60828;40.292;17.998;2022-11-20T09:09:25;33.41;41.87
72712;SHT30;60828;40.292;17.998;2022-11-20T09:11:50;33.96;41.31
72712;SHT30;60828;40.292;17.998;2022-11-20T09:14:16;33.88;40.58
72712;SHT30;60828;40.292;17.998;2022-11-20T09:16:41;31.25;42.87
72712;SHT30;60828;40.292;17.998;2022-11-20T09:19:06;31.53;43.58
72712;SHT30;60828;40.292;17.998;2022-11-20T09:21:32;30.84;45.78
72712;SHT30;60828;40.292;17.998;2022-11-20T09:23:57;30.21;45.75
72712;SHT30;60828;40.292;17.998;2022-11-20T09:26:22;28.27;49.93
72712;SHT30;60828;40.292;17.998;2022-11-20T09:28:48;27.15;52.74
72712;SHT30;60828;40.292;17.998;2022-11-20T09:31:21;26.99;52.69
72712;SHT30;60828;40.292;17.998;2022-11-20T09:33:47;26.08;54.98
72712;SHT30;60828;40.292;17.998;2022-11-20T09:36:12;25.90;54.99
72712;SHT30;60828;40.292;17.998;2022-11-20T09:38:37;25.32;56.72
72712;SHT30;60828;40.292;17.998;2022-11-20T09:41:03;24.84;58.30
72712;SHT30;60828;40.292;17.998;2022-11-20T09:48:32;24.68;60.19
72712;SHT30;60828;40.292;17.998;2022-11-20T09:53:56;24.18;60.44
72712;SHT30;60828;40.292;17.998;2022-11-20T09:56:25;24.04;61.67
72712;SHT30;60828;40.292;17.998;2022-11-20T09:58:51;23.50;62.57
72712;SHT30;60828;40.292;17.998;2022-11-20T10:01:26;23.13;63.51
72712;SHT30;60828;40.292;17.998;2022-11-20T10:06:21;23.03;63.74
72712;SHT30;60828;40.292;17.998;2022-11-20T10:08:55;22.88;63.33
72712;SHT30;60828;40.292;17.998;2022-11-20T10:11:28;22.99;63.12
72712;SHT30;60828;40.292;17.998;2022-11-20T10:15:03;23.20;62.51
72712;SHT30;60828;40.292;17.998;2022-11-20T10:16:57;23.23;63.10
72712;SHT30;60828;40.292;17.998;2022-11-20T10:32:42;23.73;61.23
72712;SHT30;60828;40.292;17.998;2022-11-20T10:37:56;23.58;61.65
72712;SHT30;60828;40.292;17.998;2022-11-20T10:40:26;23.53;61.79
72712;SHT30;60828;40.292;17.998;2022-11-20T10:47:49;23.43;61.39
72712;SHT30;60828;40.292;17.998;2022-11-20T10:50:16;23.47;61.73
72712;SHT30;60828;40.292;17.998;2022-11-20T10:58:09;23.02;62.70
72712;SHT30;60828;40.292;17.998;2022-11-20T11:00:35;22.99;64.39
72712;SHT30;60828;40.292;17.998;2022-11-20T11:03:00;23.19;63.69
72712;SHT30;60828;40.292;17.998;2022-11-20T11:05:39;23.20;62.31
72712;SHT30;60828;40.292;17.998;2022-11-20T11:08:09;23.15;63.09
72712;SHT30;60828;40.292;17.998;2022-11-20T11:10:37;22.94;63.17
72712;SHT30;60828;40.292;17.998;2022-11-20T11:13:06;22.87;64.36
72712;SHT30;60828;40.292;17.998;2022-11-20T11:15:39;22.73;64.78
72712;SHT30;60828;40.292;17.998;2022-11-20T11:18:08;22.43;64.72
72712;SHT30;60828;40.292;17.998;2022-11-20T11:20:33;21.92;65.29
72712;SHT30;60828;40.292;17.998;2022-11-20T11:22:59;21.79;66.24
72712;SHT30;60828;40.292;17.998;2022-11-20T11:25:32;21.82;66.92
72712;SHT30;60828;40.292;17.998;2022-11-20T11:28:02;21.83;67.16
72712;SHT30;60828;40.292;17.998;2022-11-20T11:30:28;21.65;66.91
72712;SHT30;60828;40.292;17.998;2022-11-20T11:33:04;21.47;68.25
72712;SHT30;60828;40.292;17.998;2022-11-20T11:35:30;21.40;67.46
72712;SHT30;60828;40.292;17.998;2022-11-20T11:38:11;21.32;67.85
72712;SHT30;60828;40.292;17.998;2022-11-20T11:40:39;21.30;68.49
72712;SHT30;60828;40.292;17.998;2022-11-20T11:43:05;21.11;68.59
72712;SHT30;60828;40.292;17.998;2022-11-20T11:45:54;20.90;67.50
72712;SHT30;60828;40.292;17.998;2022-11-20T11:48:20;20.56;64.40
72712;SHT30;60828;40.292;17.998;2022-11-20T11:50:49;20.28;66.11
72712;SHT30;60828;40.292;17.998;2022-11-20T11:53:18;20.17;67.76
72712;SHT30;60828;40.292;17.998;2022-11-20T11:55:56;20.24;68.48
72712;SHT30;60828;40.292;17.998;2022-11-20T12:03:36;19.89;68.07
72712;SHT30;60828;40.292;17.998;2022-11-20T12:06:06;19.91;68.73
72712;SHT30;60828;40.292;17.998;2022-11-20T12:08:45;20.01;68.45
72712;SHT30;60828;40.292;17.998;2022-11-20T12:11:13;20.11;69.01
72712;SHT30;60828;40.292;17.998;2022-11-20T12:13:58;19.98;69.07
72712;SHT30;60828;40.292;17.998;2022-11-20T12:16:28;19.79;70.24
72712;SHT30;60828;40.292;17.998;2022-11-20T12:18:55;19.96;69.88
72712;SHT30;60828;40.292;17.998;2022-11-20T12:21:26;19.97;69.46
72712;SHT30;60828;40.292;17.998;2022-11-20T12:29:08;19.77;71.18
72712;SHT30;60828;40.292;17.998;2022-11-20T12:41:43;19.46;71.37
72712;SHT30;60828;40.292;17.998;2022-11-20T12:44:44;19.36;71.97
72712;SHT30;60828;40.292;17.998;2022-11-20T13:00:19;19.10;73.83
72712;SHT30;60828;40.292;17.998;2022-11-20T13:02:56;19.01;74.07
72712;SHT30;60828;40.292;17.998;2022-11-20T13:05:31;18.81;74.67
72712;SHT30;60828;40.292;17.998;2022-11-20T13:07:59;18.71;75.66
72712;SHT30;60828;40.292;17.998;2022-11-20T13:10:33;18.63;76.63
72712;SHT30;60828;40.292;17.998;2022-11-20T13:13:03;18.56;77.15
72712;SHT30;60828;40.292;17.998;2022-11-20T13:18:01;18.47;78.24
72712;SHT30;60828;40.292;17.998;2022-11-20T13:20:27;18.39;78.51
72712;SHT30;60828;40.292;17.998;2022-11-20T13:22:55;18.47;78.74
72712;SHT30;60828;40.292;17.998;2022-11-20T13:25:43;18.39;79.28
72712;SHT30;60828;40.292;17.998;2022-11-20T13:30:36;18.30;79.97
72712;SHT30;60828;40.292;17.998;2022-11-20T13:35:28;18.09;80.39
72712;SHT30;60828;40.292;17.998;2022-11-20T13:40:26;17.84;80.83
72712;SHT30;60828;40.292;17.998;2022-11-20T13:42:54;17.81;81.18
72712;SHT30;60828;40.292;17.998;2022-11-20T13:45:27;17.62;81.84
72712;SHT30;60828;40.292;17.998;2022-11-20T13:47:52;17.40;81.89
72712;SHT30;60828;40.292;17.998;2022-11-20T13:50:18;17.32;82.57
72712;SHT30;60828;40.292;17.998;2022-11-20T14:09:02;16.29;87.38
72712;SHT30;60828;40.292;17.998;2022-11-20T14:11:28;16.40;86.87
72712;SHT30;60828;40.292;17.998;2022-11-20T14:14:26;16.49;86.62
72712;SHT30;60828;40.292;17.998;2022-11-20T14:16:53;16.50;85.78
72712;SHT30;60828;40.292;17.998;2022-11-20T14:19:31;16.47;85.62
72712;SHT30;60828;40.292;17.998;2022-11-20T14:27:19;16.60;84.57
72712;SHT30;60828;40.292;17.998;2022-11-20T14:29:47;16.61;84.06
72712;SHT30;60828;40.292;17.998;2022-11-20T14:32:20;16.58;83.19
72712;SHT30;60828;40.292;17.998;2022-11-20T14:34:48;16.60;83.39
72712;SHT30;60828;40.292;17.998;2022-11-20T14:37:24;16.54;83.29
72712;SHT30;60828;40.292;17.998;2022-11-20T14:39:51;16.58;83.76
72712;SHT30;60828;40.292;17.998;2022-11-20T14:42:21;16.54;84.13
72712;SHT30;60828;40.292;17.998;2022-11-20T14:47:33;16.54;84.74
72712;SHT30;60828;40.292;17.998;2022-11-20T14:50:00;16.47;84.88
72712;SHT30;60828;40.292;17.998;2022-11-20T14:52:26;16.31;84.48
72712;SHT30;60828;40.292;17.998;2022-11-20T14:54:55;16.24;84.89
72712;SHT30;60828;40.292;17.998;2022-11-20T15:05:47;15.96;85.70
72712;SHT30;60828;40.292;17.998;2022-11-20T15:08:14;15.98;85.85
72712;SHT30;60828;40.292;17.998;2022-11-20T15:10:50;15.93;85.53
72712;SHT30;60828;40.292;17.998;2022-11-20T15:13:30;15.86;85.52
72712;SHT30;60828;40.292;17.998;2022-11-20T15:16:22;15.89;85.63
72712;SHT30;60828;40.292;17.998;2022-11-20T15:18:49;15.81;85.59
72712;SHT30;60828;40.292;17.998;2022-11-20T15:21:16;15.81;85.37
72712;SHT30;60828;40.292;17.998;2022-11-20T15:23:51;15.69;85.12
72712;SHT30;60828;40.292;17.998;2022-11-20T15:26:26;15.74;84.98
72712;SHT30;60828;40.292;17.998;2022-11-20T15:28:54;15.75;85.02
72712;SHT30;60828;40.292;17.998;2022-11-20T15:31:23;15.71;85.07
72712;SHT30;60828;40.292;17.998;2022-11-20T15:33:49;15.68;84.94
72712;SHT30;60828;40.292;17.998;2022-11-20T15:36:15;15.62;84.70
72712;SHT30;60828;40.292;17.998;2022-11-20T15:38:52;15.64;84.80
72712;SHT30;60828;40.292;17.998;2022-11-20T15:41:18;15.54;84.52
72712;SHT30;60828;40.292;17.998;2022-11-20T15:43:46;15.47;84.70
72712;SHT30;60828;40.292;17.998;2022-11-20T15:46:12;15.54;84.84
72712;SHT30;60828;40.292;17.998;2022-11-20T15:54:14;15.46;84.35
72712;SHT30;60828;40.292;17.998;2022-11-20T15:59:46;15.58;83.87
72712;SHT30;60828;40.292;17.998;2022-11-20T16:02:11;15.46;83.45
72712;SHT30;60828;40.292;17.998;2022-11-20T16:04:47;15.51;83.45
72712;SHT30;60828;40.292;17.998;2022-11-20T16:07:12;15.66;83.32
72712;SHT30;60828;40.292;17.998;2022-11-20T16:09:38;15.54;83.46
72712;SHT30;60828;40.292;17.998;2022-11-20T16:12:04;15.58;83.07
72712;SHT30;60828;40.292;17.998;2022-11-20T16:14:33;15.57;83.25
72712;SHT30;60828;40.292;17.998;2022-11-20T16:17:18;15.40;83.35
72712;SHT30;60828;40.292;17.998;2022-11-20T16:20:03;15.31;83.39
72712;SHT30;60828;40.292;17.998;2022-11-20T16:22:28;15.33;83.56
72712;SHT30;60828;40.292;17.998;2022-11-20T16:24:54;15.30;82.72
72712;SHT30;60828;40.292;17.998;2022-11-20T16:27:19;15.30;82.83
72712;SHT30;60828;40.292;17.998;2022-11-20T16:29:45;15.38;82.29
72712;SHT30;60828;40.292;17.998;2022-11-20T16:32:10;15.37;82.35
72712;SHT30;60828;40.292;17.998;2022-11-20T16:34:39;15.23;82.37
72712;SHT30;60828;40.292;17.998;2022-11-20T16:37:05;15.16;82.62
72712;SHT30;60828;40.292;17.998;2022-11-20T16:39:31;15.11;82.42
72712;SHT30;60828;40.292;17.998;2022-11-20T16:41:57;15.10;82.57
72712;SHT30;60828;40.292;17.998;2022-11-20T16:44:23;15.14;82.73
72712;SHT30;60828;40.292;17.998;2022-11-20T16:46:48;15.11;82.64
72712;SHT30;60828;40.292;17.998;2022-11-20T16:49:14;15.02;82.65
72712;SHT30;60828;40.292;17.998;2022-11-20T16:51:40;14.98;82.73
72712;SHT30;60828;40.292;17.998;2022-11-20T16:54:06;15.00;82.97
72712;SHT30;60828;40.292;17.998;2022-11-20T16:56:37;15.02;82.97
72712;SHT30;60828;40.292;17.998;2022-11-20T16:59:07;15.04;82.81
72712;SHT30;60828;40.292;17.998;2022-11-20T17:01:54;15.02;83.11
72712;SHT30;60828;40.292;17.998;2022-11-20T17:04:27;15.06;83.13
72712;SHT30;60828;40.292;17.998;2022-11-20T17:06:53;15.09;83.00
72712;SHT30;60828;40.292;17.998;2022-11-20T17:09:18;15.07;83.10
72712;SHT30;60828;40.292;17.998;2022-11-20T17:11:46;15.03;82.99
72712;SHT30;60828;40.292;17.998;2022-11-20T17:14:15;14.99;83.11
72712;SHT30;60828;40.292;17.998;2022-11-20T17:16:41;14.88;83.59
72712;SHT30;60828;40.292;17.998;2022-11-20T17:19:07;14.76;83.97
72712;SHT30;60828;40.292;17.998;2022-11-20T17:21:34;14.93;83.55
72712;SHT30;60828;40.292;17.998;2022-11-20T17:24:02;14.92;83.43